sensor_id;sensor_type;location;lat;lon;timestamp;P1;durP1;ratioP1;P2;durP2;ratioP2
69795;SDS011;57073;45.650;9.612;2024-01-15T00:02:44;62.30;;;28.73;;
69795;SDS011;57073;45.650;9.612;2024-01-15T00:07:45;63.73;;;27.17;;
69795;SDS011;57073;45.650;9.612;2024-01-15T00:12:45;59.87;;;27.03;;
69795;SDS011;57073;45.650;9.612;2024-01-15T00:17:45;58.53;;;27.40;;
69795;SDS011;57073;45.650;9.612;2024-01-15T00:22:46;59.43;;;28.47;;
69795;SDS011;57073;45.650;9.612;2024-01-15T00:27:46;63.43;;;28.00;;
69795;SDS011;57073;45.650;9.612;2024-01-15T00:32:46;60.23;;;26.57;;
69795;SDS011;57073;45.650;9.612;2024-01-15T00:37:47;56.70;;;27.10;;
69795;SDS011;57073;45.650;9.612;2024-01-15T00:42:47;59.80;;;28.43;;
69795;SDS011;57073;45.650;9.612;2024-01-15T00:47:48;57.07;;;27.80;;
69795;SDS011;57073;45.650;9.612;2024-01-15T00:52:48;56.15;;;27.67;;
69795;SDS011;57073;45.650;9.612;2024-01-15T00:57:49;60.80;;;27.30;;
69795;SDS011;57073;45.650;9.612;2024-01-15T01:02:49;57.87;;;26.60;;
69795;SDS011;57073;45.650;9.612;2024-01-15T01:07:49;60.10;;;28.07;;
69795;SDS011;57073;45.650;9.612;2024-01-15T01:12:50;57.03;;;27.43;;
69795;SDS011;57073;45.650;9.612;2024-01-15T01:17:50;56.10;;;26.90;;
69795;SDS011;57073;45.650;9.612;2024-01-15T01:22:50;61.23;;;28.20;;
69795;SDS011;57073;45.650;9.612;2024-01-15T01:27:51;59.13;;;27.80;;
69795;SDS011;57073;45.650;9.612;2024-01-15T01:32:51;59.30;;;27.93;;
69795;SDS011;57073;45.650;9.612;2024-01-15T01:37:51;59.60;;;27.33;;
69795;SDS011;57073;45.650;9.612;2024-01-15T01:42:52;56.80;;;26.60;;
69795;SDS011;57073;45.650;9.612;2024-01-15T01:47:52;57.40;;;28.17;;
69795;SDS011;57073;45.650;9.612;2024-01-15T01:52:53;58.70;;;28.20;;
69795;SDS011;57073;45.650;9.612;2024-01-15T01:57:53;56.53;;;26.90;;
69795;SDS011;57073;45.650;9.612;2024-01-15T02:02:55;53.78;;;26.85;;
69795;SDS011;57073;45.650;9.612;2024-01-15T02:07:57;61.77;;;27.13;;
69795;SDS011;57073;45.650;9.612;2024-01-15T02:12:57;59.43;;;26.53;;
69795;SDS011;57073;45.650;9.612;2024-01-15T02:18:04;55.85;;;25.40;;
69795;SDS011;57073;45.650;9.612;2024-01-15T02:23:14;59.08;;;27.15;;
69795;SDS011;57073;45.650;9.612;2024-01-15T02:28:16;55.70;;;25.97;;
69795;SDS011;57073;45.650;9.612;2024-01-15T02:33:17;52.10;;;26.60;;
69795;SDS011;57073;45.650;9.612;2024-01-15T02:38:17;59.27;;;26.70;;
69795;SDS011;57073;45.650;9.612;2024-01-15T02:43:18;53.47;;;25.70;;
69795;SDS011;57073;45.650;9.612;2024-01-15T02:48:19;50.13;;;25.65;;
69795;SDS011;57073;45.650;9.612;2024-01-15T02:53:19;54.90;;;25.87;;
69795;SDS011;57073;45.650;9.612;2024-01-15T02:58:20;57.00;;;26.43;;
69795;SDS011;57073;45.650;9.612;2024-01-15T03:03:20;56.00;;;25.63;;
69795;SDS011;57073;45.650;9.612;2024-01-15T03:08:21;57.07;;;27.13;;
69795;SDS011;57073;45.650;9.612;2024-01-15T03:13:22;54.58;;;25.98;;
69795;SDS011;57073;45.650;9.612;2024-01-15T03:18:23;52.20;;;25.30;;
69795;SDS011;57073;45.650;9.612;2024-01-15T03:23:23;49.30;;;25.13;;
69795;SDS011;57073;45.650;9.612;2024-01-15T03:28:23;54.20;;;25.40;;
69795;SDS011;57073;45.650;9.612;2024-01-15T03:33:24;51.03;;;26.10;;
69795;SDS011;57073;45.650;9.612;2024-01-15T03:38:24;52.83;;;25.57;;
69795;SDS011;57073;45.650;9.612;2024-01-15T03:43:25;55.17;;;25.83;;
69795;SDS011;57073;45.650;9.612;2024-01-15T03:48:26;53.53;;;25.25;;
69795;SDS011;57073;45.650;9.612;2024-01-15T03:53:26;52.47;;;24.83;;
69795;SDS011;57073;45.650;9.612;2024-01-15T03:58:27;49.88;;;24.48;;
69795;SDS011;57073;45.650;9.612;2024-01-15T04:03:27;53.90;;;25.07;;
69795;SDS011;57073;45.650;9.612;2024-01-15T04:08:27;47.23;;;23.23;;
69795;SDS011;57073;45.650;9.612;2024-01-15T04:13:28;40.90;;;21.20;;
69795;SDS011;57073;45.650;9.612;2024-01-15T04:18:28;42.43;;;20.33;;
69795;SDS011;57073;45.650;9.612;2024-01-15T04:23:28;42.17;;;20.53;;
69795;SDS011;57073;45.650;9.612;2024-01-15T04:28:29;38.17;;;19.07;;
69795;SDS011;57073;45.650;9.612;2024-01-15T04:33:29;38.50;;;19.37;;
69795;SDS011;57073;45.650;9.612;2024-01-15T04:38:29;36.73;;;18.73;;
69795;SDS011;57073;45.650;9.612;2024-01-15T04:43:30;40.37;;;19.90;;
69795;SDS011;57073;45.650;9.612;2024-01-15T04:48:30;38.37;;;19.67;;
69795;SDS011;57073;45.650;9.612;2024-01-15T04:53:30;43.90;;;20.27;;
69795;SDS011;57073;45.650;9.612;2024-01-15T04:58:31;38.03;;;19.47;;
69795;SDS011;57073;45.650;9.612;2024-01-15T05:03:31;37.17;;;19.57;;
69795;SDS011;57073;45.650;9.612;2024-01-15T05:08:31;36.23;;;19.30;;
69795;SDS011;57073;45.650;9.612;2024-01-15T05:13:32;41.10;;;19.53;;
69795;SDS011;57073;45.650;9.612;2024-01-15T05:18:32;37.60;;;18.37;;
69795;SDS011;57073;45.650;9.612;2024-01-15T05:23:33;36.73;;;18.93;;
69795;SDS011;57073;45.650;9.612;2024-01-15T05:28:34;35.97;;;17.63;;
69795;SDS011;57073;45.650;9.612;2024-01-15T05:33:34;30.52;;;15.98;;
69795;SDS011;57073;45.650;9.612;2024-01-15T05:38:35;33.77;;;16.27;;
69795;SDS011;57073;45.650;9.612;2024-01-15T05:43:35;28.23;;;15.13;;
69795;SDS011;57073;45.650;9.612;2024-01-15T05:48:35;35.60;;;14.97;;
69795;SDS011;57073;45.650;9.612;2024-01-15T05:53:36;27.70;;;13.57;;
69795;SDS011;57073;45.650;9.612;2024-01-15T05:58:38;21.90;;;12.27;;
69795;SDS011;57073;45.650;9.612;2024-01-15T06:03:38;28.33;;;14.47;;
69795;SDS011;57073;45.650;9.612;2024-01-15T06:08:39;34.97;;;15.63;;
69795;SDS011;57073;45.650;9.612;2024-01-15T06:13:39;38.47;;;18.37;;
69795;SDS011;57073;45.650;9.612;2024-01-15T06:18:39;35.47;;;18.70;;
69795;SDS011;57073;45.650;9.612;2024-01-15T06:23:40;35.57;;;17.73;;
69795;SDS011;57073;45.650;9.612;2024-01-15T06:28:40;32.47;;;16.93;;
69795;SDS011;57073;45.650;9.612;2024-01-15T06:33:40;30.73;;;16.03;;
69795;SDS011;57073;45.650;9.612;2024-01-15T06:38:41;29.10;;;14.40;;
69795;SDS011;57073;45.650;9.612;2024-01-15T06:43:43;35.80;;;15.15;;
69795;SDS011;57073;45.650;9.612;2024-01-15T06:48:43;30.20;;;13.87;;
69795;SDS011;57073;45.650;9.612;2024-01-15T06:53:43;26.33;;;13.73;;
69795;SDS011;57073;45.650;9.612;2024-01-15T06:58:44;30.60;;;14.27;;
69795;SDS011;57073;45.650;9.612;2024-01-15T07:03:44;28.47;;;13.33;;
69795;SDS011;57073;45.650;9.612;2024-01-15T07:08:44;31.30;;;13.67;;
69795;SDS011;57073;45.650;9.612;2024-01-15T07:13:46;26.42;;;13.30;;
69795;SDS011;57073;45.650;9.612;2024-01-15T07:18:46;29.90;;;15.50;;
69795;SDS011;57073;45.650;9.612;2024-01-15T07:23:46;33.10;;;15.43;;
69795;SDS011;57073;45.650;9.612;2024-01-15T07:28:47;31.03;;;15.10;;
69795;SDS011;57073;45.650;9.612;2024-01-15T07:33:48;32.35;;;15.20;;
69795;SDS011;57073;45.650;9.612;2024-01-15T07:38:49;31.55;;;14.93;;
69795;SDS011;57073;45.650;9.612;2024-01-15T07:43:50;29.90;;;13.80;;
69795;SDS011;57073;45.650;9.612;2024-01-15T07:48:50;32.90;;;14.87;;
69795;SDS011;57073;45.650;9.612;2024-01-15T07:53:56;31.60;;;14.38;;
69795;SDS011;57073;45.650;9.612;2024-01-15T07:58:56;25.53;;;13.57;;
69795;SDS011;57073;45.650;9.612;2024-01-15T08:03:57;27.27;;;13.83;;
69795;SDS011;57073;45.650;9.612;2024-01-15T08:08:57;27.83;;;13.73;;
69795;SDS011;57073;45.650;9.612;2024-01-15T08:13:59;25.08;;;13.63;;
69795;SDS011;57073;45.650;9.612;2024-01-15T08:18:59;27.23;;;13.40;;
69795;SDS011;57073;45.650;9.612;2024-01-15T08:24:00;22.17;;;12.33;;
69795;SDS011;57073;45.650;9.612;2024-01-15T08:29:02;25.90;;;14.23;;
69795;SDS011;57073;45.650;9.612;2024-01-15T08:34:02;31.00;;;13.97;;
69795;SDS011;57073;45.650;9.612;2024-01-15T08:39:02;23.00;;;13.77;;
69795;SDS011;57073;45.650;9.612;2024-01-15T08:44:04;23.97;;;12.37;;
69795;SDS011;57073;45.650;9.612;2024-01-15T08:49:05;27.63;;;13.63;;
69795;SDS011;57073;45.650;9.612;2024-01-15T08:54:05;22.85;;;12.95;;
69795;SDS011;57073;45.650;9.612;2024-01-15T08:59:08;25.40;;;13.32;;
69795;SDS011;57073;45.650;9.612;2024-01-15T09:04:08;24.90;;;13.83;;
69795;SDS011;57073;45.650;9.612;2024-01-15T09:09:09;26.23;;;14.33;;
69795;SDS011;57073;45.650;9.612;2024-01-15T09:14:10;28.00;;;14.97;;
69795;SDS011;57073;45.650;9.612;2024-01-15T09:19:10;36.23;;;16.67;;
69795;SDS011;57073;45.650;9.612;2024-01-15T09:24:11;31.80;;;16.87;;
69795;SDS011;57073;45.650;9.612;2024-01-15T09:29:11;40.77;;;21.57;;
69795;SDS011;57073;45.650;9.612;2024-01-15T09:34:11;42.73;;;22.93;;
69795;SDS011;57073;45.650;9.612;2024-01-15T09:39:12;41.03;;;21.10;;
69795;SDS011;57073;45.650;9.612;2024-01-15T09:44:12;43.03;;;22.37;;
69795;SDS011;57073;45.650;9.612;2024-01-15T09:49:13;44.97;;;24.27;;
69795;SDS011;57073;45.650;9.612;2024-01-15T09:54:13;50.00;;;24.77;;
69795;SDS011;57073;45.650;9.612;2024-01-15T09:59:17;54.15;;;27.45;;
69795;SDS011;57073;45.650;9.612;2024-01-15T10:04:18;55.83;;;29.03;;
69795;SDS011;57073;45.650;9.612;2024-01-15T10:09:19;56.33;;;28.73;;
69795;SDS011;57073;45.650;9.612;2024-01-15T10:14:19;58.53;;;30.50;;
69795;SDS011;57073;45.650;9.612;2024-01-15T10:19:19;59.27;;;29.30;;
69795;SDS011;57073;45.650;9.612;2024-01-15T10:24:20;60.03;;;30.80;;
69795;SDS011;57073;45.650;9.612;2024-01-15T10:29:20;58.47;;;28.87;;
69795;SDS011;57073;45.650;9.612;2024-01-15T10:34:20;55.97;;;28.43;;
69795;SDS011;57073;45.650;9.612;2024-01-15T10:39:22;54.17;;;28.20;;
69795;SDS011;57073;45.650;9.612;2024-01-15T10:44:25;52.28;;;27.25;;
69795;SDS011;57073;45.650;9.612;2024-01-15T10:49:25;51.65;;;28.10;;
69795;SDS011;57073;45.650;9.612;2024-01-15T10:54:28;51.57;;;26.97;;
69795;SDS011;57073;45.650;9.612;2024-01-15T10:59:29;49.17;;;25.65;;
69795;SDS011;57073;45.650;9.612;2024-01-15T11:04:31;44.43;;;24.13;;
69795;SDS011;57073;45.650;9.612;2024-01-15T11:09:32;44.40;;;24.80;;
69795;SDS011;57073;45.650;9.612;2024-01-15T11:19:46;73.20;;;34.72;;
69795;SDS011;57073;45.650;9.612;2024-01-15T11:24:47;77.20;;;35.83;;
69795;SDS011;57073;45.650;9.612;2024-01-15T11:29:48;76.53;;;37.10;;
69795;SDS011;57073;45.650;9.612;2024-01-15T11:35:04;73.80;;;38.47;;
69795;SDS011;57073;45.650;9.612;2024-01-15T11:40:06;72.27;;;35.77;;
69795;SDS011;57073;45.650;9.612;2024-01-15T11:45:11;71.13;;;34.50;;
69795;SDS011;57073;45.650;9.612;2024-01-15T11:50:12;73.17;;;35.67;;
69795;SDS011;57073;45.650;9.612;2024-01-15T11:55:30;69.70;;;35.43;;
69795;SDS011;57073;45.650;9.612;2024-01-15T12:00:33;73.10;;;36.08;;
69795;SDS011;57073;45.650;9.612;2024-01-15T12:05:36;71.10;;;35.77;;
69795;SDS011;57073;45.650;9.612;2024-01-15T12:10:37;69.13;;;33.08;;
69795;SDS011;57073;45.650;9.612;2024-01-15T12:15:39;70.70;;;35.13;;
69795;SDS011;57073;45.650;9.612;2024-01-15T12:20:44;81.15;;;38.10;;
69795;SDS011;57073;45.650;9.612;2024-01-15T12:25:48;76.35;;;37.38;;
69795;SDS011;57073;45.650;9.612;2024-01-15T12:30:49;75.03;;;35.43;;
69795;SDS011;57073;45.650;9.612;2024-01-15T12:35:52;68.30;;;35.20;;
69795;SDS011;57073;45.650;9.612;2024-01-15T12:40:53;65.47;;;33.53;;
69795;SDS011;57073;45.650;9.612;2024-01-15T12:45:54;67.13;;;34.03;;
69795;SDS011;57073;45.650;9.612;2024-01-15T12:50:55;65.07;;;32.50;;
69795;SDS011;57073;45.650;9.612;2024-01-15T12:55:55;66.03;;;32.90;;
69795;SDS011;57073;45.650;9.612;2024-01-15T13:00:56;63.53;;;31.93;;
69795;SDS011;57073;45.650;9.612;2024-01-15T13:05:56;56.87;;;31.17;;
69795;SDS011;57073;45.650;9.612;2024-01-15T13:10:56;58.17;;;30.93;;
69795;SDS011;57073;45.650;9.612;2024-01-15T13:15:57;60.53;;;30.83;;
69795;SDS011;57073;45.650;9.612;2024-01-15T13:20:57;69.70;;;35.13;;
69795;SDS011;57073;45.650;9.612;2024-01-15T13:25:58;60.60;;;31.73;;
69795;SDS011;57073;45.650;9.612;2024-01-15T13:30:58;57.73;;;30.87;;
69795;SDS011;57073;45.650;9.612;2024-01-15T13:35:59;60.60;;;30.47;;
69795;SDS011;57073;45.650;9.612;2024-01-15T13:40:59;57.20;;;29.43;;
69795;SDS011;57073;45.650;9.612;2024-01-15T13:45:59;40.00;;;21.77;;
69795;SDS011;57073;45.650;9.612;2024-01-15T13:51:00;26.13;;;13.50;;
69795;SDS011;57073;45.650;9.612;2024-01-15T13:56:00;21.17;;;12.83;;
69795;SDS011;57073;45.650;9.612;2024-01-15T14:01:01;24.67;;;13.03;;
69795;SDS011;57073;45.650;9.612;2024-01-15T14:06:03;22.30;;;13.23;;
69795;SDS011;57073;45.650;9.612;2024-01-15T14:11:08;20.53;;;13.50;;
69795;SDS011;57073;45.650;9.612;2024-01-15T14:16:10;24.85;;;13.07;;
69795;SDS011;57073;45.650;9.612;2024-01-15T14:21:11;22.00;;;12.40;;
69795;SDS011;57073;45.650;9.612;2024-01-15T14:26:12;24.90;;;13.00;;
69795;SDS011;57073;45.650;9.612;2024-01-15T14:31:12;21.93;;;13.20;;
69795;SDS011;57073;45.650;9.612;2024-01-15T14:36:12;22.20;;;12.20;;
69795;SDS011;57073;45.650;9.612;2024-01-15T14:41:13;20.90;;;11.93;;
69795;SDS011;57073;45.650;9.612;2024-01-15T14:46:13;22.30;;;12.50;;
69795;SDS011;57073;45.650;9.612;2024-01-15T14:51:14;20.87;;;12.03;;
69795;SDS011;57073;45.650;9.612;2024-01-15T14:56:14;19.83;;;11.47;;
69795;SDS011;57073;45.650;9.612;2024-01-15T15:01:15;19.87;;;12.03;;
69795;SDS011;57073;45.650;9.612;2024-01-15T15:06:16;20.17;;;12.18;;
69795;SDS011;57073;45.650;9.612;2024-01-15T15:11:16;24.97;;;12.80;;
69795;SDS011;57073;45.650;9.612;2024-01-15T15:16:16;23.77;;;13.67;;
69795;SDS011;57073;45.650;9.612;2024-01-15T15:21:17;25.93;;;12.30;;
69795;SDS011;57073;45.650;9.612;2024-01-15T15:26:17;24.43;;;13.53;;
69795;SDS011;57073;45.650;9.612;2024-01-15T15:31:18;28.23;;;15.90;;
69795;SDS011;57073;45.650;9.612;2024-01-15T15:36:18;37.97;;;18.20;;
69795;SDS011;57073;45.650;9.612;2024-01-15T15:41:19;36.83;;;18.63;;
69795;SDS011;57073;45.650;9.612;2024-01-15T15:46:19;32.80;;;17.87;;
69795;SDS011;57073;45.650;9.612;2024-01-15T15:51:19;29.27;;;14.93;;
69795;SDS011;57073;45.650;9.612;2024-01-15T15:56:20;30.77;;;16.53;;
69795;SDS011;57073;45.650;9.612;2024-01-15T16:01:20;41.70;;;20.43;;
69795;SDS011;57073;45.650;9.612;2024-01-15T16:06:22;64.17;;;31.63;;
69795;SDS011;57073;45.650;9.612;2024-01-15T16:11:22;66.43;;;35.77;;
69795;SDS011;57073;45.650;9.612;2024-01-15T16:16:23;68.03;;;35.72;;
69795;SDS011;57073;45.650;9.612;2024-01-15T16:21:23;73.10;;;37.87;;
69795;SDS011;57073;45.650;9.612;2024-01-15T16:26:24;73.80;;;37.80;;
69795;SDS011;57073;45.650;9.612;2024-01-15T16:31:24;82.73;;;41.70;;
69795;SDS011;57073;45.650;9.612;2024-01-15T16:36:25;77.55;;;38.03;;
69795;SDS011;57073;45.650;9.612;2024-01-15T16:41:25;75.57;;;38.13;;
69795;SDS011;57073;45.650;9.612;2024-01-15T16:46:26;75.13;;;38.27;;
69795;SDS011;57073;45.650;9.612;2024-01-15T16:51:26;77.90;;;38.00;;
69795;SDS011;57073;45.650;9.612;2024-01-15T16:56:26;72.77;;;37.30;;
69795;SDS011;57073;45.650;9.612;2024-01-15T17:01:27;72.53;;;37.27;;
69795;SDS011;57073;45.650;9.612;2024-01-15T17:06:27;75.17;;;36.27;;
69795;SDS011;57073;45.650;9.612;2024-01-15T17:11:27;71.30;;;36.77;;
69795;SDS011;57073;45.650;9.612;2024-01-15T17:16:28;74.20;;;37.63;;
69795;SDS011;57073;45.650;9.612;2024-01-15T17:21:31;76.18;;;35.97;;
69795;SDS011;57073;45.650;9.612;2024-01-15T17:26:31;73.93;;;35.43;;
69795;SDS011;57073;45.650;9.612;2024-01-15T17:31:32;75.43;;;35.40;;
69795;SDS011;57073;45.650;9.612;2024-01-15T17:36:33;71.93;;;35.47;;
69795;SDS011;57073;45.650;9.612;2024-01-15T17:41:33;72.53;;;36.00;;
69795;SDS011;57073;45.650;9.612;2024-01-15T17:46:33;77.68;;;37.50;;
69795;SDS011;57073;45.650;9.612;2024-01-15T17:51:34;96.18;;;46.97;;
69795;SDS011;57073;45.650;9.612;2024-01-15T17:56:35;79.20;;;38.23;;
69795;SDS011;57073;45.650;9.612;2024-01-15T18:01:35;83.47;;;36.13;;
69795;SDS011;57073;45.650;9.612;2024-01-15T18:06:36;74.90;;;34.80;;
69795;SDS011;57073;45.650;9.612;2024-01-15T18:11:36;71.25;;;34.33;;
69795;SDS011;57073;45.650;9.612;2024-01-15T18:16:37;67.97;;;34.20;;
69795;SDS011;57073;45.650;9.612;2024-01-15T18:21:37;70.80;;;34.72;;
69795;SDS011;57073;45.650;9.612;2024-01-15T18:26:37;69.18;;;33.25;;
69795;SDS011;57073;45.650;9.612;2024-01-15T18:31:39;66.82;;;32.58;;
69795;SDS011;57073;45.650;9.612;2024-01-15T18:36:40;69.03;;;32.63;;
69795;SDS011;57073;45.650;9.612;2024-01-15T18:41:42;72.75;;;34.97;;
69795;SDS011;57073;45.650;9.612;2024-01-15T18:46:43;69.70;;;35.45;;
69795;SDS011;57073;45.650;9.612;2024-01-15T18:51:45;70.15;;;33.78;;
69795;SDS011;57073;45.650;9.612;2024-01-15T18:56:51;69.78;;;34.60;;
69795;SDS011;57073;45.650;9.612;2024-01-15T19:01:51;79.37;;;37.20;;
69795;SDS011;57073;45.650;9.612;2024-01-15T19:06:51;71.37;;;33.03;;
69795;SDS011;57073;45.650;9.612;2024-01-15T19:11:52;67.83;;;31.93;;
69795;SDS011;57073;45.650;9.612;2024-01-15T19:16:52;76.93;;;34.27;;
69795;SDS011;57073;45.650;9.612;2024-01-15T19:21:54;72.40;;;34.80;;
69795;SDS011;57073;45.650;9.612;2024-01-15T19:26:54;185.50;;;82.43;;
69795;SDS011;57073;45.650;9.612;2024-01-15T19:31:54;79.83;;;38.17;;
69795;SDS011;57073;45.650;9.612;2024-01-15T19:36:55;66.23;;;33.03;;
69795;SDS011;57073;45.650;9.612;2024-01-15T19:41:55;71.47;;;35.03;;
69795;SDS011;57073;45.650;9.612;2024-01-15T19:46:56;68.32;;;34.92;;
69795;SDS011;57073;45.650;9.612;2024-01-15T19:51:56;67.90;;;32.90;;
69795;SDS011;57073;45.650;9.612;2024-01-15T19:56:56;73.37;;;35.87;;
69795;SDS011;57073;45.650;9.612;2024-01-15T20:01:57;77.13;;;36.83;;
69795;SDS011;57073;45.650;9.612;2024-01-15T20:06:57;69.93;;;35.13;;
69795;SDS011;57073;45.650;9.612;2024-01-15T20:11:58;75.47;;;35.73;;
69795;SDS011;57073;45.650;9.612;2024-01-15T20:16:59;77.65;;;36.70;;
69795;SDS011;57073;45.650;9.612;2024-01-15T20:22:00;66.87;;;32.07;;
69795;SDS011;57073;45.650;9.612;2024-01-15T20:27:01;64.53;;;33.50;;
69795;SDS011;57073;45.650;9.612;2024-01-15T20:32:01;65.30;;;33.07;;
69795;SDS011;57073;45.650;9.612;2024-01-15T20:37:02;66.82;;;32.90;;
69795;SDS011;57073;45.650;9.612;2024-01-15T20:42:03;66.13;;;32.57;;
69795;SDS011;57073;45.650;9.612;2024-01-15T20:47:03;71.10;;;34.17;;
69795;SDS011;57073;45.650;9.612;2024-01-15T20:52:04;63.13;;;31.20;;
69795;SDS011;57073;45.650;9.612;2024-01-15T20:57:05;71.73;;;34.80;;
69795;SDS011;57073;45.650;9.612;2024-01-15T21:02:05;67.57;;;30.75;;
69795;SDS011;57073;45.650;9.612;2024-01-15T21:07:06;61.73;;;28.97;;
69795;SDS011;57073;45.650;9.612;2024-01-15T21:12:09;66.20;;;31.93;;
69795;SDS011;57073;45.650;9.612;2024-01-15T21:17:09;58.40;;;28.30;;
69795;SDS011;57073;45.650;9.612;2024-01-15T21:22:10;55.50;;;28.00;;
69795;SDS011;57073;45.650;9.612;2024-01-15T21:27:10;62.27;;;29.17;;
69795;SDS011;57073;45.650;9.612;2024-01-15T21:32:10;61.90;;;28.23;;
69795;SDS011;57073;45.650;9.612;2024-01-15T21:37:11;55.93;;;27.70;;
69795;SDS011;57073;45.650;9.612;2024-01-15T21:42:11;58.63;;;26.73;;
69795;SDS011;57073;45.650;9.612;2024-01-15T21:47:12;51.23;;;23.37;;
69795;SDS011;57073;45.650;9.612;2024-01-15T21:52:12;52.90;;;24.53;;
69795;SDS011;57073;45.650;9.612;2024-01-15T21:57:12;46.97;;;23.17;;
69795;SDS011;57073;45.650;9.612;2024-01-15T22:02:13;50.43;;;22.27;;
69795;SDS011;57073;45.650;9.612;2024-01-15T22:07:13;48.27;;;22.57;;
69795;SDS011;57073;45.650;9.612;2024-01-15T22:12:14;49.87;;;23.43;;
69795;SDS011;57073;45.650;9.612;2024-01-15T22:17:15;46.90;;;23.10;;
69795;SDS011;57073;45.650;9.612;2024-01-15T22:22:16;46.30;;;22.30;;
69795;SDS011;57073;45.650;9.612;2024-01-15T22:27:16;51.03;;;23.20;;
69795;SDS011;57073;45.650;9.612;2024-01-15T22:32:16;51.43;;;23.57;;
69795;SDS011;57073;45.650;9.612;2024-01-15T22:37:17;55.53;;;24.43;;
69795;SDS011;57073;45.650;9.612;2024-01-15T22:42:18;51.93;;;23.93;;
69795;SDS011;57073;45.650;9.612;2024-01-15T22:47:18;51.40;;;24.50;;
69795;SDS011;57073;45.650;9.612;2024-01-15T22:52:19;47.33;;;22.00;;
69795;SDS011;57073;45.650;9.612;2024-01-15T22:57:19;53.50;;;23.10;;
69795;SDS011;57073;45.650;9.612;2024-01-15T23:02:20;46.42;;;22.10;;
69795;SDS011;57073;45.650;9.612;2024-01-15T23:07:21;43.97;;;22.87;;
69795;SDS011;57073;45.650;9.612;2024-01-15T23:12:21;42.00;;;21.43;;
69795;SDS011;57073;45.650;9.612;2024-01-15T23:17:21;46.77;;;23.03;;
69795;SDS011;57073;45.650;9.612;2024-01-15T23:22:22;46.67;;;22.45;;
69795;SDS011;57073;45.650;9.612;2024-01-15T23:27:23;44.07;;;21.10;;
69795;SDS011;57073;45.650;9.612;2024-01-15T23:32:23;50.60;;;22.53;;
69795;SDS011;57073;45.650;9.612;2024-01-15T23:37:23;49.33;;;22.20;;
69795;SDS011;57073;45.650;9.612;2024-01-15T23:42:24;51.10;;;23.57;;
69795;SDS011;57073;45.650;9.612;2024-01-15T23:47:24;43.47;;;21.15;;
69795;SDS011;57073;45.650;9.612;2024-01-15T23:52:24;43.93;;;21.63;;
69795;SDS011;57073;45.650;9.612;2024-01-15T23:57:25;46.23;;;20.53;;
